createdAt,value
2022-10-08T00:00:10.389Z,43.25
2022-10-08T00:03:18.602Z,35.67
2022-10-08T00:06:27.175Z,31.05
2022-10-08T00:09:30.863Z,28.67
2022-10-08T00:12:35.205Z,30.45
2022-10-08T00:15:38.843Z,32.22
2022-10-08T00:18:45.367Z,35.40
2022-10-08T00:21:53.614Z,35.80
2022-10-08T00:24:57.210Z,38.30
2022-10-08T00:28:00.885Z,33.63
2022-10-08T00:31:10.386Z,32.17
2022-10-08T00:34:17.425Z,27.25
2022-10-08T00:37:21.098Z,31.75
2022-10-08T00:40:25.692Z,31.43
2022-10-08T00:43:49.926Z,33.65
2022-10-08T00:46:54.667Z,30.48
2022-10-08T00:50:02.430Z,36.97
2022-10-08T00:53:08.489Z,37.13
2022-10-08T00:56:12.517Z,32.60
2022-10-08T00:59:17.477Z,28.55
2022-10-08T01:02:21.767Z,34.67
2022-10-08T01:05:57.418Z,25.48
2022-10-08T01:09:25.245Z,25.45
2022-10-08T01:12:41.987Z,21.33
2022-10-08T01:15:58.546Z,25.40
2022-10-08T01:19:11.246Z,21.02
2022-10-08T01:22:32.263Z,19.25
2022-10-08T01:26:00.844Z,15.02
2022-10-08T01:29:23.579Z,19.67
2022-10-08T01:32:31.845Z,30.40
2022-10-08T01:35:38.355Z,27.08
2022-10-08T01:38:46.517Z,37.63
2022-10-08T01:41:54.958Z,25.73
2022-10-08T01:45:09.937Z,22.67
2022-10-08T01:48:20.400Z,20.92
2022-10-08T01:51:53.358Z,21.65
2022-10-08T01:55:02.078Z,18.63
2022-10-08T01:58:12.703Z,22.33
2022-10-08T02:01:42.944Z,25.90
2022-10-08T02:04:47.220Z,20.40
2022-10-08T02:07:51.602Z,19.23
2022-10-08T02:10:54.736Z,16.85
2022-10-08T02:13:58.378Z,13.30
2022-10-08T02:17:25.183Z,12.63
2022-10-08T02:20:48.322Z,14.68
2022-10-08T02:23:56.855Z,4.95
2022-10-08T02:27:05.184Z,5.72
2022-10-08T02:30:13.139Z,5.82
2022-10-08T02:33:21.361Z,4.37
2022-10-08T02:36:29.395Z,2.75
2022-10-08T02:39:38.038Z,4.55
2022-10-08T02:42:51.782Z,2.50
2022-10-08T02:46:01.368Z,4.18
2022-10-08T02:49:11.518Z,3.60
2022-10-08T02:52:17.436Z,5.47
2022-10-08T02:55:55.275Z,5.55
2022-10-08T02:58:58.737Z,4.90
2022-10-08T03:02:04.328Z,4.18
2022-10-08T03:05:16.215Z,5.07
2022-10-08T03:08:22.093Z,2.95
2022-10-08T03:11:25.232Z,3.33
2022-10-08T03:14:29.593Z,3.90
2022-10-08T03:17:38.462Z,5.88
2022-10-08T03:20:45.924Z,4.73
2022-10-08T03:23:49.715Z,4.18
2022-10-08T03:26:54.273Z,5.10
2022-10-08T03:29:58.210Z,5.50
2022-10-08T03:33:01.840Z,8.25
2022-10-08T03:36:06.992Z,9.33
2022-10-08T03:39:13.138Z,10.88
2022-10-08T03:42:17.208Z,5.80
2022-10-08T03:45:20.719Z,5.57
2022-10-08T03:48:24.753Z,4.53
2022-10-08T03:51:28.335Z,6.67
2022-10-08T03:54:32.143Z,4.22
2022-10-08T03:57:35.752Z,3.63
2022-10-08T04:00:39.563Z,4.20
2022-10-08T04:03:43.752Z,3.22
2022-10-08T04:06:47.615Z,4.47
2022-10-08T04:09:50.777Z,5.93
2022-10-08T04:12:54.276Z,7.15
2022-10-08T04:16:02.294Z,7.97
2022-10-08T04:19:06.419Z,5.63
2022-10-08T04:22:09.933Z,3.43
2022-10-08T04:25:13.862Z,5.78
2022-10-08T04:28:17.464Z,4.38
2022-10-08T04:31:24.102Z,11.63
2022-10-08T04:34:27.695Z,5.32
2022-10-08T04:37:31.594Z,4.27
2022-10-08T04:40:34.980Z,9.68
2022-10-08T04:43:40.321Z,5.00
2022-10-08T04:46:43.909Z,4.55
2022-10-08T04:49:46.786Z,7.10
2022-10-08T04:52:50.375Z,5.23
2022-10-08T04:55:55.087Z,6.47
2022-10-08T04:59:01.149Z,9.65
2022-10-08T05:02:04.781Z,13.02
2022-10-08T05:05:08.038Z,3.90
2022-10-08T05:08:12.400Z,6.10
2022-10-08T05:11:17.134Z,5.80
2022-10-08T05:14:21.098Z,4.57
2022-10-08T05:17:24.661Z,3.75
2022-10-08T05:20:28.665Z,7.88
2022-10-08T05:23:32.513Z,5.87
2022-10-08T05:26:58.441Z,3.88
2022-10-08T05:30:02.881Z,4.78
2022-10-08T05:33:06.455Z,4.78
2022-10-08T05:36:26.699Z,4.75
2022-10-08T05:39:30.601Z,5.63
2022-10-08T05:42:33.836Z,6.53
2022-10-08T05:45:37.676Z,12.93
2022-10-08T05:48:40.926Z,7.80
2022-10-08T05:51:44.679Z,7.35
2022-10-08T05:54:47.494Z,5.43
2022-10-08T05:57:50.681Z,5.50
2022-10-08T06:01:01.028Z,5.30
2022-10-08T06:04:09.262Z,9.38
2022-10-08T06:07:12.841Z,5.47
2022-10-08T06:10:16.307Z,8.60
2022-10-08T06:13:20.989Z,6.32
2022-10-08T06:16:25.354Z,7.68
2022-10-08T06:19:29.170Z,5.85
2022-10-08T06:22:32.035Z,5.10
2022-10-08T06:25:39.664Z,4.50
2022-10-08T06:28:42.871Z,4.97
2022-10-08T06:31:47.063Z,3.85
2022-10-08T06:34:50.889Z,13.18
2022-10-08T06:37:54.358Z,10.43
2022-10-08T06:40:59.327Z,10.97
2022-10-08T06:44:04.877Z,12.15
2022-10-08T06:47:08.393Z,4.30
2022-10-08T06:50:11.826Z,4.50
2022-10-08T06:53:16.028Z,4.13
2022-10-08T06:56:19.596Z,3.97
2022-10-08T06:59:23.451Z,3.10
2022-10-08T07:02:27.065Z,4.55
2022-10-08T07:05:30.994Z,8.82
2022-10-08T07:08:36.566Z,6.78
2022-10-08T07:11:40.450Z,7.43
2022-10-08T07:14:44.229Z,9.55
2022-10-08T07:17:48.157Z,13.57
2022-10-08T07:20:56.949Z,11.40
2022-10-08T07:24:02.628Z,8.05
2022-10-08T07:27:06.470Z,7.97
2022-10-08T07:30:10.402Z,5.68
2022-10-08T07:33:14.044Z,5.97
2022-10-08T07:36:19.837Z,5.32
2022-10-08T07:39:23.766Z,4.78
2022-10-08T07:42:27.488Z,8.20
2022-10-08T07:45:32.208Z,5.68
2022-10-08T07:48:36.748Z,5.50
2022-10-08T07:51:42.619Z,10.25
2022-10-08T07:54:49.026Z,6.55
2022-10-08T07:57:53.084Z,11.20
2022-10-08T08:01:00.737Z,8.52
2022-10-08T08:04:08.008Z,6.75
2022-10-08T08:07:12.553Z,14.80
2022-10-08T08:10:17.157Z,10.50
2022-10-08T08:13:20.816Z,7.63
2022-10-08T08:16:26.261Z,6.35
2022-10-08T08:19:29.252Z,4.43
2022-10-08T08:22:32.221Z,11.35
2022-10-08T08:25:35.829Z,6.63
2022-10-08T08:28:39.860Z,6.90
2022-10-08T08:31:49.085Z,8.60
2022-10-08T08:34:53.182Z,6.72
2022-10-08T08:37:56.805Z,4.45
2022-10-08T08:41:16.413Z,6.10
2022-10-08T08:44:30.686Z,9.43
2022-10-08T08:47:38.504Z,5.18
2022-10-08T08:50:48.478Z,8.85
2022-10-08T08:53:52.970Z,7.38
2022-10-08T08:56:56.865Z,7.65
2022-10-08T09:00:19.330Z,8.40
2022-10-08T09:04:01.926Z,10.77
2022-10-08T09:07:09.500Z,8.73
2022-10-08T09:10:19.255Z,7.07
2022-10-08T09:13:27.981Z,4.47
2022-10-08T09:16:32.004Z,4.20
2022-10-08T09:19:37.275Z,6.63
2022-10-08T09:22:41.925Z,5.82
2022-10-08T09:25:53.418Z,5.35
2022-10-08T09:28:59.632Z,5.60
2022-10-08T09:32:02.653Z,10.90
2022-10-08T09:35:10.881Z,3.72
2022-10-08T09:38:28.435Z,5.60
2022-10-08T09:41:33.009Z,10.85
2022-10-08T09:44:52.297Z,8.70
2022-10-08T09:48:19.014Z,7.63
2022-10-08T09:51:23.117Z,14.85
2022-10-08T09:54:34.619Z,11.30
2022-10-08T09:57:49.051Z,10.88
2022-10-08T10:00:59.386Z,11.88
2022-10-08T10:04:04.529Z,15.30
2022-10-08T10:07:08.660Z,18.45
2022-10-08T10:10:39.799Z,24.02
2022-10-08T10:13:43.355Z,28.55
2022-10-08T10:16:50.081Z,20.73
2022-10-08T10:20:00.446Z,20.40
2022-10-08T10:23:12.838Z,18.88
2022-10-08T10:26:25.150Z,15.02
2022-10-08T10:29:32.464Z,16.88
2022-10-08T10:32:45.014Z,25.85
2022-10-08T10:35:53.656Z,27.53
2022-10-08T10:39:23.593Z,57.92
2022-10-08T10:42:30.310Z,74.03
2022-10-08T10:45:37.164Z,134.18
2022-10-08T10:48:40.598Z,151.05
2022-10-08T10:52:24.090Z,204.87
2022-10-08T10:55:38.679Z,142.10
2022-10-08T10:58:42.317Z,77.57
2022-10-08T11:02:12.386Z,59.22
2022-10-08T11:05:25.339Z,39.28
2022-10-08T11:08:45.196Z,38.47
2022-10-08T11:11:53.220Z,29.30
2022-10-08T11:14:56.345Z,28.15
2022-10-08T11:18:11.443Z,29.45
2022-10-08T11:21:42.442Z,26.58
2022-10-08T11:24:46.132Z,27.37
2022-10-08T11:27:55.667Z,63.10
2022-10-08T11:31:12.983Z,63.13
2022-10-08T11:34:22.331Z,69.63
2022-10-08T11:37:48.565Z,64.32
2022-10-08T11:41:11.096Z,52.73
2022-10-08T11:44:17.164Z,52.42
2022-10-08T11:47:43.928Z,50.70
2022-10-08T11:50:47.303Z,55.83
2022-10-08T11:54:09.529Z,64.82
2022-10-08T11:57:55.794Z,57.33
2022-10-08T12:01:06.097Z,46.50
2022-10-08T12:04:30.676Z,43.80
2022-10-08T12:07:42.369Z,41.33
2022-10-08T12:10:45.346Z,42.65
2022-10-08T12:14:14.244Z,41.90
2022-10-08T12:17:17.728Z,49.38
2022-10-08T12:20:24.679Z,44.30
2022-10-08T12:23:32.630Z,59.13
2022-10-08T12:26:36.098Z,73.43
2022-10-08T12:30:01.004Z,71.33
2022-10-08T12:33:04.886Z,75.78
2022-10-08T12:36:15.892Z,76.30
2022-10-08T12:39:36.819Z,89.35
2022-10-08T12:42:42.178Z,104.18
2022-10-08T12:46:21.237Z,101.13
2022-10-08T12:49:38.514Z,116.60
2022-10-08T12:52:42.511Z,129.90
2022-10-08T12:55:55.784Z,119.75
2022-10-08T12:59:03.281Z,120.03
2022-10-08T13:02:25.175Z,101.97
2022-10-08T13:05:31.565Z,104.13
2022-10-08T13:08:37.747Z,104.22
2022-10-08T13:11:42.661Z,88.13
2022-10-08T13:14:46.368Z,84.55
2022-10-08T13:17:49.945Z,87.13
2022-10-08T13:21:06.846Z,89.93
2022-10-08T13:24:12.612Z,91.93
2022-10-08T13:27:42.905Z,106.10
2022-10-08T13:30:47.540Z,99.88
2022-10-08T13:33:51.564Z,102.33
2022-10-08T13:36:59.053Z,95.93
2022-10-08T13:40:14.687Z,99.25
2022-10-08T13:43:18.014Z,103.05
2022-10-08T13:46:21.109Z,105.13
2022-10-08T13:49:28.944Z,103.30
2022-10-08T13:52:34.832Z,120.45
2022-10-08T13:55:39.571Z,103.20
2022-10-08T13:58:43.190Z,103.72
2022-10-08T14:01:47.479Z,114.95
2022-10-08T14:04:52.028Z,121.43
2022-10-08T14:08:00.932Z,132.48
2022-10-08T14:11:04.003Z,112.88
2022-10-08T14:14:11.663Z,111.35
2022-10-08T14:17:14.906Z,116.55
2022-10-08T14:20:18.482Z,112.03
2022-10-08T14:23:22.732Z,104.57
2022-10-08T14:26:26.542Z,96.18
2022-10-08T14:29:29.513Z,102.90
2022-10-08T14:32:33.906Z,96.18
2022-10-08T14:35:37.130Z,90.23
2022-10-08T14:38:40.468Z,100.18
2022-10-08T14:41:44.827Z,93.85
2022-10-08T14:44:48.814Z,84.43
2022-10-08T14:47:51.857Z,89.28
2022-10-08T14:50:58.350Z,82.00
2022-10-08T14:54:02.086Z,85.50
2022-10-08T14:57:05.701Z,85.05
2022-10-08T15:00:09.402Z,86.40
2022-10-08T15:03:13.357Z,91.40
2022-10-08T15:06:16.427Z,93.10
2022-10-08T15:09:19.899Z,87.32
2022-10-08T15:12:23.730Z,95.88
2022-10-08T15:15:27.725Z,74.03
2022-10-08T15:18:32.193Z,75.10
2022-10-08T15:21:36.832Z,83.30
2022-10-08T15:24:40.541Z,108.45
2022-10-08T15:27:44.382Z,91.88
2022-10-08T15:30:48.424Z,99.13
2022-10-08T15:33:54.025Z,109.22
2022-10-08T15:36:57.355Z,110.60
2022-10-08T15:40:00.645Z,108.60
2022-10-08T15:43:04.315Z,112.97
2022-10-08T15:46:14.972Z,105.80
2022-10-08T15:49:18.604Z,84.05
2022-10-08T15:52:23.122Z,84.07
2022-10-08T15:55:26.446Z,84.68
2022-10-08T15:58:50.310Z,81.82
2022-10-08T16:01:54.739Z,94.97
2022-10-08T16:04:58.906Z,87.82
2022-10-08T16:08:02.756Z,97.43
2022-10-08T16:11:14.714Z,98.05
2022-10-08T16:14:21.449Z,97.97
2022-10-08T16:17:27.714Z,101.75
2022-10-08T16:20:31.573Z,100.75
2022-10-08T16:23:38.388Z,102.10
2022-10-08T16:26:43.263Z,102.80
2022-10-08T16:29:47.959Z,93.60
2022-10-08T16:32:51.605Z,85.32
2022-10-08T16:35:57.784Z,94.00
2022-10-08T16:39:02.081Z,44.03
2022-10-08T16:42:05.736Z,30.42
2022-10-08T16:45:09.874Z,29.75
2022-10-08T16:48:13.931Z,29.10
2022-10-08T16:51:17.542Z,28.33
2022-10-08T16:54:21.243Z,27.93
2022-10-08T16:57:26.196Z,28.05
2022-10-08T17:00:30.789Z,31.55
2022-10-08T17:03:34.442Z,36.05
2022-10-08T17:06:38.246Z,41.22
2022-10-08T17:09:41.347Z,58.10
2022-10-08T17:12:45.555Z,63.30
2022-10-08T17:15:59.553Z,69.95
2022-10-08T17:19:04.480Z,73.80
2022-10-08T17:22:07.429Z,68.43
2022-10-08T17:25:10.715Z,73.63
2022-10-08T17:28:14.508Z,78.25
2022-10-08T17:31:23.201Z,59.05
2022-10-08T17:34:26.987Z,58.75
2022-10-08T17:37:30.575Z,64.47
2022-10-08T17:40:34.013Z,80.50
2022-10-08T17:43:38.059Z,80.68
2022-10-08T17:46:47.651Z,86.88
2022-10-08T17:49:50.633Z,94.28
2022-10-08T17:52:53.662Z,85.20
2022-10-08T17:56:06.843Z,82.77
2022-10-08T17:59:13.683Z,80.18
2022-10-08T18:02:16.744Z,75.50
2022-10-08T18:05:20.286Z,71.70
2022-10-08T18:08:24.191Z,73.80
2022-10-08T18:11:28.826Z,86.50
2022-10-08T18:14:32.619Z,67.25
2022-10-08T18:17:36.613Z,67.00
2022-10-08T18:20:40.077Z,66.30
2022-10-08T18:23:44.213Z,59.97
2022-10-08T18:26:47.602Z,61.07
2022-10-08T18:29:50.811Z,61.17
2022-10-08T18:32:54.418Z,54.50
2022-10-08T18:35:57.360Z,48.25
2022-10-08T18:39:06.490Z,54.13
2022-10-08T18:42:10.461Z,44.10
2022-10-08T18:45:14.299Z,40.03
2022-10-08T18:48:17.373Z,41.67
2022-10-08T18:51:23.596Z,47.45
2022-10-08T18:54:27.811Z,47.33
2022-10-08T18:57:31.551Z,47.80
2022-10-08T19:00:39.344Z,67.35
2022-10-08T19:03:47.075Z,55.05
2022-10-08T19:06:53.902Z,55.90
2022-10-08T19:09:57.140Z,55.63
2022-10-08T19:13:00.352Z,50.23
2022-10-08T19:16:04.868Z,41.70
2022-10-08T19:19:12.594Z,42.40
2022-10-08T19:22:16.369Z,38.63
2022-10-08T19:25:19.995Z,40.45
2022-10-08T19:28:23.432Z,34.10
2022-10-08T19:31:29.686Z,35.33
2022-10-08T19:34:33.961Z,35.92
2022-10-08T19:37:37.487Z,36.30
2022-10-08T19:40:41.151Z,39.55
2022-10-08T19:43:44.976Z,41.60
2022-10-08T19:46:48.886Z,52.88
2022-10-08T19:49:51.921Z,50.67
2022-10-08T19:52:56.124Z,54.08
2022-10-08T19:56:00.612Z,65.68
2022-10-08T19:59:04.918Z,44.93
2022-10-08T20:02:08.026Z,36.35
2022-10-08T20:05:12.314Z,28.27
2022-10-08T20:08:15.323Z,45.95
2022-10-08T20:11:21.093Z,34.28
2022-10-08T20:14:24.115Z,42.57
2022-10-08T20:17:27.087Z,41.92
2022-10-08T20:20:33.693Z,49.55
2022-10-08T20:23:38.818Z,41.70
2022-10-08T20:26:43.954Z,46.70
2022-10-08T20:29:48.099Z,36.80
2022-10-08T20:32:51.833Z,36.88
2022-10-08T20:35:55.867Z,33.85
2022-10-08T20:39:01.951Z,35.70
2022-10-08T20:42:05.698Z,39.58
2022-10-08T20:45:12.468Z,45.87
2022-10-08T20:48:16.133Z,40.38
2022-10-08T20:51:22.404Z,44.33
2022-10-08T20:54:25.572Z,46.28
2022-10-08T20:57:28.908Z,39.00
2022-10-08T21:00:34.675Z,45.47
2022-10-08T21:03:38.448Z,42.63
2022-10-08T21:06:46.293Z,42.88
2022-10-08T21:09:53.439Z,50.15
2022-10-08T21:12:57.131Z,44.05
2022-10-08T21:16:08.559Z,55.03
2022-10-08T21:19:14.826Z,51.92
2022-10-08T21:22:18.981Z,43.58
2022-10-08T21:25:22.510Z,40.88
2022-10-08T21:28:26.217Z,30.65
2022-10-08T21:31:32.439Z,25.23
2022-10-08T21:34:36.599Z,17.23
2022-10-08T21:37:40.176Z,20.40
2022-10-08T21:40:44.186Z,23.10
2022-10-08T21:43:53.683Z,20.00
2022-10-08T21:46:57.699Z,25.00
2022-10-08T21:50:01.334Z,35.28
2022-10-08T21:53:05.410Z,35.80
2022-10-08T21:56:12.314Z,42.25
2022-10-08T21:59:17.127Z,49.38
2022-10-08T22:02:20.066Z,59.17
2022-10-08T22:05:29.112Z,53.70
2022-10-08T22:08:33.525Z,37.75
2022-10-08T22:11:36.888Z,42.63
2022-10-08T22:14:40.599Z,32.97
2022-10-08T22:17:44.498Z,32.43
2022-10-08T22:20:48.386Z,44.45
2022-10-08T22:23:53.505Z,39.15
2022-10-08T22:26:57.199Z,32.85
2022-10-08T22:30:00.502Z,31.38
2022-10-08T22:33:04.719Z,48.93
2022-10-08T22:36:17.178Z,42.58
2022-10-08T22:39:20.875Z,37.90
2022-10-08T22:42:24.263Z,28.00
2022-10-08T22:45:27.254Z,30.15
2022-10-08T22:48:31.115Z,36.70
2022-10-08T22:51:35.172Z,36.47
2022-10-08T22:54:38.577Z,31.90
2022-10-08T22:57:42.184Z,51.30
2022-10-08T23:00:45.856Z,44.33
2022-10-08T23:03:50.185Z,40.63
2022-10-08T23:06:53.250Z,34.35
2022-10-08T23:09:56.389Z,39.45
2022-10-08T23:12:59.653Z,35.75
2022-10-08T23:16:11.840Z,31.92
2022-10-08T23:19:15.274Z,38.13
2022-10-08T23:22:18.268Z,45.38
2022-10-08T23:25:22.295Z,43.08
2022-10-08T23:28:25.730Z,38.20
2022-10-08T23:31:32.411Z,37.15
2022-10-08T23:34:36.107Z,45.67
2022-10-08T23:37:39.521Z,36.10
2022-10-08T23:40:43.235Z,39.58
2022-10-08T23:43:49.055Z,40.00
2022-10-08T23:46:52.621Z,42.17
2022-10-08T23:49:55.930Z,37.13
2022-10-08T23:52:59.593Z,37.47
2022-10-08T23:56:03.575Z,37.88
2022-10-08T23:59:07.341Z,35.60
